sensor_id;sensor_type;location;lat;lon;timestamp;pressure;altitude;pressure_sealevel;temperature;humidity
24858;BME280;12935;50.782;6.074;2023-02-19T00:01:36;99796.41;;;9.39;100.00
24858;BME280;12935;50.782;6.074;2023-02-19T00:04:04;99793.25;;;9.34;100.00
24858;BME280;12935;50.782;6.074;2023-02-19T00:06:32;99812.34;;;9.34;100.00
24858;BME280;12935;50.782;6.074;2023-02-19T00:08:57;99800.59;;;9.30;100.00
24858;BME280;12935;50.782;6.074;2023-02-19T00:11:25;99799.03;;;9.29;100.00
24858;BME280;12935;50.782;6.074;2023-02-19T00:13:52;99792.06;;;9.31;100.00
24858;BME280;12935;50.782;6.074;2023-02-19T00:16:22;99803.34;;;9.30;100.00
24858;BME280;12935;50.782;6.074;2023-02-19T00:18:48;99797.09;;;9.26;100.00
24858;BME280;12935;50.782;6.074;2023-02-19T00:21:14;99799.81;;;9.26;100.00
24858;BME280;12935;50.782;6.074;2023-02-19T00:23:40;99781.41;;;9.15;100.00
24858;BME280;12935;50.782;6.074;2023-02-19T00:26:11;99797.88;;;9.26;100.00
24858;BME280;12935;50.782;6.074;2023-02-19T00:28:37;99817.66;;;9.20;100.00
24858;BME280;12935;50.782;6.074;2023-02-19T00:31:07;99809.56;;;9.27;100.00
24858;BME280;12935;50.782;6.074;2023-02-19T00:33:33;99792.75;;;9.21;100.00
24858;BME280;12935;50.782;6.074;2023-02-19T00:36:03;99799.00;;;9.22;100.00
24858;BME280;12935;50.782;6.074;2023-02-19T00:38:29;99781.50;;;9.26;100.00
24858;BME280;12935;50.782;6.074;2023-02-19T00:40:54;99792.00;;;9.24;100.00
24858;BME280;12935;50.782;6.074;2023-02-19T00:43:19;99797.47;;;9.24;100.00
24858;BME280;12935;50.782;6.074;2023-02-19T00:45:45;99795.09;;;9.23;100.00
24858;BME280;12935;50.782;6.074;2023-02-19T00:48:10;99790.81;;;9.22;100.00
24858;BME280;12935;50.782;6.074;2023-02-19T00:50:35;99786.16;;;9.22;100.00
24858;BME280;12935;50.782;6.074;2023-02-19T00:53:00;99776.81;;;9.23;100.00
24858;BME280;12935;50.782;6.074;2023-02-19T00:55:26;99788.50;;;9.24;100.00
24858;BME280;12935;50.782;6.074;2023-02-19T00:57:51;99773.63;;;9.18;100.00
24858;BME280;12935;50.782;6.074;2023-02-19T01:00:16;99775.19;;;9.19;100.00
24858;BME280;12935;50.782;6.074;2023-02-19T01:02:42;99777.22;;;9.25;100.00
24858;BME280;12935;50.782;6.074;2023-02-19T01:05:07;99785.41;;;9.25;100.00
24858;BME280;12935;50.782;6.074;2023-02-19T01:07:35;99789.66;;;9.23;100.00
24858;BME280;12935;50.782;6.074;2023-02-19T01:10:00;99765.03;;;9.12;100.00
24858;BME280;12935;50.782;6.074;2023-02-19T01:12:25;99778.72;;;9.19;100.00
24858;BME280;12935;50.782;6.074;2023-02-19T01:14:52;99772.84;;;9.17;100.00
24858;BME280;12935;50.782;6.074;2023-02-19T01:17:18;99759.97;;;9.14;100.00
24858;BME280;12935;50.782;6.074;2023-02-19T01:19:44;99773.28;;;9.23;100.00
24858;BME280;12935;50.782;6.074;2023-02-19T01:22:09;99776.78;;;9.20;100.00
24858;BME280;12935;50.782;6.074;2023-02-19T01:24:34;99774.03;;;9.20;100.00
24858;BME280;12935;50.782;6.074;2023-02-19T01:27:00;99767.44;;;9.21;100.00
24858;BME280;12935;50.782;6.074;2023-02-19T01:29:25;99778.31;;;9.17;100.00
24858;BME280;12935;50.782;6.074;2023-02-19T01:31:50;99771.31;;;9.20;100.00
24858;BME280;12935;50.782;6.074;2023-02-19T01:34:15;99762.00;;;9.24;100.00
24858;BME280;12935;50.782;6.074;2023-02-19T01:36:41;99763.53;;;9.22;100.00
24858;BME280;12935;50.782;6.074;2023-02-19T01:39:06;99764.75;;;9.24;100.00
24858;BME280;12935;50.782;6.074;2023-02-19T01:41:34;99770.94;;;9.21;100.00
24858;BME280;12935;50.782;6.074;2023-02-19T01:44:01;99772.88;;;9.21;100.00
24858;BME280;12935;50.782;6.074;2023-02-19T01:46:32;99774.81;;;9.20;100.00
24858;BME280;12935;50.782;6.074;2023-02-19T01:49:03;99773.66;;;9.21;100.00
24858;BME280;12935;50.782;6.074;2023-02-19T01:51:31;99781.47;;;9.23;100.00
24858;BME280;12935;50.782;6.074;2023-02-19T01:53:59;99793.13;;;9.20;100.00
24858;BME280;12935;50.782;6.074;2023-02-19T01:56:27;99779.50;;;9.20;100.00
24858;BME280;12935;50.782;6.074;2023-02-19T01:58:54;99787.25;;;9.18;100.00
24858;BME280;12935;50.782;6.074;2023-02-19T02:01:19;99786.94;;;9.23;100.00
24858;BME280;12935;50.782;6.074;2023-02-19T02:03:46;99781.50;;;9.26;100.00
24858;BME280;12935;50.782;6.074;2023-02-19T02:06:23;99792.75;;;9.21;100.00
24858;BME280;12935;50.782;6.074;2023-02-19T02:08:52;99787.25;;;9.18;100.00
24858;BME280;12935;50.782;6.074;2023-02-19T02:11:41;99781.44;;;9.19;100.00
24858;BME280;12935;50.782;6.074;2023-02-19T02:14:08;99786.84;;;9.15;100.00
24858;BME280;12935;50.782;6.074;2023-02-19T02:16:45;99795.03;;;9.12;100.00
24858;BME280;12935;50.782;6.074;2023-02-19T02:22:00;99780.22;;;9.13;100.00
24858;BME280;12935;50.782;6.074;2023-02-19T02:27:55;99779.84;;;9.14;100.00
24858;BME280;12935;50.782;6.074;2023-02-19T02:30:36;99784.88;;;9.09;100.00
24858;BME280;12935;50.782;6.074;2023-02-19T02:35:44;99779.84;;;9.14;100.00
24858;BME280;12935;50.782;6.074;2023-02-19T02:38:11;99786.41;;;9.06;100.00
24858;BME280;12935;50.782;6.074;2023-02-19T02:40:41;99790.69;;;9.07;100.00
24858;BME280;12935;50.782;6.074;2023-02-19T02:43:07;99779.00;;;9.07;100.00
24858;BME280;12935;50.782;6.074;2023-02-19T02:45:33;99786.06;;;9.11;100.00
24858;BME280;12935;50.782;6.074;2023-02-19T02:50:43;99794.56;;;9.06;100.00
24858;BME280;12935;50.782;6.074;2023-02-19T02:53:17;99791.47;;;9.08;100.00
24858;BME280;12935;50.782;6.074;2023-02-19T02:56:03;99795.38;;;9.07;100.00
24858;BME280;12935;50.782;6.074;2023-02-19T02:58:30;99802.00;;;9.09;100.00
24858;BME280;12935;50.782;6.074;2023-02-19T03:01:01;99791.06;;;9.06;100.00
24858;BME280;12935;50.782;6.074;2023-02-19T03:03:52;99803.50;;;9.03;100.00
24858;BME280;12935;50.782;6.074;2023-02-19T03:06:20;99798.47;;;9.05;100.00
24858;BME280;12935;50.782;6.074;2023-02-19T03:09:01;99799.22;;;9.02;100.00
24858;BME280;12935;50.782;6.074;2023-02-19T03:11:31;99806.22;;;9.03;100.00
24858;BME280;12935;50.782;6.074;2023-02-19T03:14:21;99808.91;;;9.00;100.00
24858;BME280;12935;50.782;6.074;2023-02-19T03:17:19;99812.06;;;9.02;100.00
24858;BME280;12935;50.782;6.074;2023-02-19T03:20:09;99813.66;;;9.06;100.00
24858;BME280;12935;50.782;6.074;2023-02-19T03:22:36;99810.56;;;9.08;100.00
24858;BME280;12935;50.782;6.074;2023-02-19T03:25:09;99810.09;;;9.02;100.00
24858;BME280;12935;50.782;6.074;2023-02-19T03:27:56;99819.06;;;9.03;100.00
24858;BME280;12935;50.782;6.074;2023-02-19T03:30:28;99815.53;;;8.99;100.00
24858;BME280;12935;50.782;6.074;2023-02-19T03:32:59;99813.22;;;9.01;100.00
24858;BME280;12935;50.782;6.074;2023-02-19T03:35:34;99821.78;;;9.03;100.00
24858;BME280;12935;50.782;6.074;2023-02-19T03:41:06;99828.41;;;9.02;100.00
24858;BME280;12935;50.782;6.074;2023-02-19T03:43:47;99825.63;;;8.98;100.00
24858;BME280;12935;50.782;6.074;2023-02-19T03:46:21;99842.00;;;8.98;100.00
24858;BME280;12935;50.782;6.074;2023-02-19T03:48:57;99833.03;;;8.98;100.00
24858;BME280;12935;50.782;6.074;2023-02-19T03:51:29;99838.09;;;8.96;100.00
24858;BME280;12935;50.782;6.074;2023-02-19T03:54:19;99854.03;;;8.97;100.00
24858;BME280;12935;50.782;6.074;2023-02-19T03:56:58;99838.47;;;8.94;100.00
24858;BME280;12935;50.782;6.074;2023-02-19T03:59:37;99843.91;;;8.94;100.00
24858;BME280;12935;50.782;6.074;2023-02-19T04:02:15;99849.38;;;8.98;100.00
24858;BME280;12935;50.782;6.074;2023-02-19T04:04:44;99851.72;;;8.96;100.00
24858;BME280;12935;50.782;6.074;2023-02-19T04:07:13;99854.81;;;8.94;100.00
24858;BME280;12935;50.782;6.074;2023-02-19T04:09:43;99854.44;;;8.96;100.00
24858;BME280;12935;50.782;6.074;2023-02-19T04:12:11;99855.59;;;8.95;100.00
24858;BME280;12935;50.782;6.074;2023-02-19T04:14:49;99863.41;;;8.96;100.00
24858;BME280;12935;50.782;6.074;2023-02-19T04:17:20;99863.72;;;8.91;100.00
24858;BME280;12935;50.782;6.074;2023-02-19T04:19:49;99877.34;;;8.91;100.00
24858;BME280;12935;50.782;6.074;2023-02-19T04:22:16;99868.81;;;8.93;100.00
24858;BME280;12935;50.782;6.074;2023-02-19T04:24:47;99878.19;;;8.95;100.00
24858;BME280;12935;50.782;6.074;2023-02-19T04:27:13;99878.09;;;8.88;100.00
24858;BME280;12935;50.782;6.074;2023-02-19T04:29:39;99887.84;;;8.89;100.00
24858;BME280;12935;50.782;6.074;2023-02-19T04:32:04;99888.22;;;8.88;100.00
24858;BME280;12935;50.782;6.074;2023-02-19T04:34:30;99885.44;;;8.81;100.00
24858;BME280;12935;50.782;6.074;2023-02-19T04:36:55;99885.03;;;8.82;100.00
24858;BME280;12935;50.782;6.074;2023-02-19T04:39:20;99888.53;;;8.79;100.00
24858;BME280;12935;50.782;6.074;2023-02-19T04:41:46;99895.44;;;8.73;100.00
24858;BME280;12935;50.782;6.074;2023-02-19T04:44:11;99901.69;;;8.73;100.00
24858;BME280;12935;50.782;6.074;2023-02-19T04:46:36;99901.69;;;8.73;100.00
24858;BME280;12935;50.782;6.074;2023-02-19T04:49:02;99903.63;;;8.73;100.00
24858;BME280;12935;50.782;6.074;2023-02-19T04:51:27;99905.91;;;8.71;100.00
24858;BME280;12935;50.782;6.074;2023-02-19T04:53:52;99903.97;;;8.71;100.00
24858;BME280;12935;50.782;6.074;2023-02-19T04:56:20;99909.44;;;8.71;100.00
24858;BME280;12935;50.782;6.074;2023-02-19T04:58:45;99904.31;;;8.66;100.00
24858;BME280;12935;50.782;6.074;2023-02-19T05:01:11;99910.16;;;8.68;100.00
24858;BME280;12935;50.782;6.074;2023-02-19T05:03:37;99919.50;;;8.67;100.00
24858;BME280;12935;50.782;6.074;2023-02-19T05:06:03;99917.97;;;8.70;100.00
24858;BME280;12935;50.782;6.074;2023-02-19T05:08:29;99915.63;;;8.68;100.00
24858;BME280;12935;50.782;6.074;2023-02-19T05:11:02;99923.00;;;8.68;100.00
24858;BME280;12935;50.782;6.074;2023-02-19T05:13:28;99915.97;;;8.67;100.00
24858;BME280;12935;50.782;6.074;2023-02-19T05:15:55;99931.97;;;8.68;100.00
24858;BME280;12935;50.782;6.074;2023-02-19T05:18:21;99925.22;;;8.59;100.00
24858;BME280;12935;50.782;6.074;2023-02-19T05:20:46;99933.81;;;8.61;100.00
24858;BME280;12935;50.782;6.074;2023-02-19T05:23:11;99932.63;;;8.58;100.00
24858;BME280;12935;50.782;6.074;2023-02-19T05:25:37;99940.38;;;8.56;100.00
24858;BME280;12935;50.782;6.074;2023-02-19T05:28:02;99938.06;;;8.58;100.00
24858;BME280;12935;50.782;6.074;2023-02-19T05:30:49;99935.28;;;8.55;100.00
24858;BME280;12935;50.782;6.074;2023-02-19T05:33:17;99938.44;;;8.57;100.00
24858;BME280;12935;50.782;6.074;2023-02-19T05:35:44;99945.03;;;8.56;100.00
24858;BME280;12935;50.782;6.074;2023-02-19T05:38:10;99945.81;;;8.56;100.00
24858;BME280;12935;50.782;6.074;2023-02-19T05:40:36;99948.19;;;8.58;100.00
24858;BME280;12935;50.782;6.074;2023-02-19T05:43:02;99956.78;;;8.60;100.00
24858;BME280;12935;50.782;6.074;2023-02-19T05:45:27;99958.72;;;8.59;100.00
24858;BME280;12935;50.782;6.074;2023-02-19T05:47:52;99967.25;;;8.58;100.00
24858;BME280;12935;50.782;6.074;2023-02-19T05:50:18;99963.31;;;8.55;100.00
24858;BME280;12935;50.782;6.074;2023-02-19T05:52:43;99968.75;;;8.55;100.00
24858;BME280;12935;50.782;6.074;2023-02-19T05:55:09;99971.53;;;8.59;100.00
24858;BME280;12935;50.782;6.074;2023-02-19T05:57:41;99970.88;;;8.65;100.00
24858;BME280;12935;50.782;6.074;2023-02-19T06:00:09;99968.91;;;8.66;100.00
24858;BME280;12935;50.782;6.074;2023-02-19T06:02:35;99982.50;;;8.62;100.00
24858;BME280;12935;50.782;6.074;2023-02-19T06:05:01;99968.09;;;8.62;100.00
24858;BME280;12935;50.782;6.074;2023-02-19T06:07:26;99974.25;;;8.59;100.00
24858;BME280;12935;50.782;6.074;2023-02-19T06:09:51;99982.84;;;8.61;100.00
24858;BME280;12935;50.782;6.074;2023-02-19T06:12:17;99971.13;;;8.57;100.00
24858;BME280;12935;50.782;6.074;2023-02-19T06:14:42;99975.78;;;8.56;100.00
24858;BME280;12935;50.782;6.074;2023-02-19T06:17:07;99969.97;;;8.58;100.00
24858;BME280;12935;50.782;6.074;2023-02-19T06:19:33;99988.19;;;8.54;100.00
24858;BME280;12935;50.782;6.074;2023-02-19T06:21:58;99985.47;;;8.54;100.00
24858;BME280;12935;50.782;6.074;2023-02-19T06:24:23;99982.38;;;8.55;100.00
24858;BME280;12935;50.782;6.074;2023-02-19T06:26:48;99983.22;;;8.59;100.00
24858;BME280;12935;50.782;6.074;2023-02-19T06:29:15;99991.75;;;8.58;100.00
24858;BME280;12935;50.782;6.074;2023-02-19T06:31:40;99996.41;;;8.57;100.00
24858;BME280;12935;50.782;6.074;2023-02-19T06:34:06;99982.00;;;8.57;100.00
24858;BME280;12935;50.782;6.074;2023-02-19T06:36:31;99987.09;;;8.58;100.00
24858;BME280;12935;50.782;6.074;2023-02-19T06:39:00;99986.72;;;8.60;100.00
24858;BME280;12935;50.782;6.074;2023-02-19T06:41:26;99994.53;;;8.61;100.00
24858;BME280;12935;50.782;6.074;2023-02-19T06:43:51;99994.19;;;8.66;100.00
24858;BME280;12935;50.782;6.074;2023-02-19T06:46:16;100000.50;;;8.70;100.00
24858;BME280;12935;50.782;6.074;2023-02-19T06:48:43;99997.25;;;8.61;100.00
24858;BME280;12935;50.782;6.074;2023-02-19T06:51:13;100008.09;;;8.58;100.00
24858;BME280;12935;50.782;6.074;2023-02-19T06:53:39;100007.00;;;8.62;100.00
24858;BME280;12935;50.782;6.074;2023-02-19T06:56:06;100013.53;;;8.58;100.00
24858;BME280;12935;50.782;6.074;2023-02-19T06:58:33;100004.16;;;8.55;100.00
24858;BME280;12935;50.782;6.074;2023-02-19T07:00:58;100026.38;;;8.57;100.00
24858;BME280;12935;50.782;6.074;2023-02-19T07:03:24;100013.53;;;8.58;100.00
24858;BME280;12935;50.782;6.074;2023-02-19T07:05:50;100024.13;;;8.63;100.00
24858;BME280;12935;50.782;6.074;2023-02-19T07:08:15;100036.50;;;8.57;100.00
24858;BME280;12935;50.782;6.074;2023-02-19T07:10:42;100026.38;;;8.57;100.00
24858;BME280;12935;50.782;6.074;2023-02-19T07:13:07;100034.19;;;8.59;100.00
24858;BME280;12935;50.782;6.074;2023-02-19T07:15:32;100044.66;;;8.57;100.00
24858;BME280;12935;50.782;6.074;2023-02-19T07:17:58;100050.91;;;8.57;100.00
24858;BME280;12935;50.782;6.074;2023-02-19T07:20:23;100057.13;;;8.58;100.00
24858;BME280;12935;50.782;6.074;2023-02-19T07:22:49;100045.03;;;8.55;100.00
24858;BME280;12935;50.782;6.074;2023-02-19T07:25:14;100062.50;;;8.54;100.00
24858;BME280;12935;50.782;6.074;2023-02-19T07:27:39;100065.97;;;8.51;100.00
24858;BME280;12935;50.782;6.074;2023-02-19T07:30:05;100071.47;;;8.55;100.00
24858;BME280;12935;50.782;6.074;2023-02-19T07:32:30;100074.19;;;8.55;100.00
24858;BME280;12935;50.782;6.074;2023-02-19T07:34:56;100065.66;;;8.56;100.00
24858;BME280;12935;50.782;6.074;2023-02-19T07:37:21;100070.31;;;8.56;100.00
24858;BME280;12935;50.782;6.074;2023-02-19T07:39:46;100077.72;;;8.55;100.00
24858;BME280;12935;50.782;6.074;2023-02-19T07:42:11;100088.97;;;8.54;100.00
24858;BME280;12935;50.782;6.074;2023-02-19T07:44:37;100084.31;;;8.54;100.00
24858;BME280;12935;50.782;6.074;2023-02-19T07:47:02;100096.78;;;8.55;100.00
24858;BME280;12935;50.782;6.074;2023-02-19T07:49:27;100096.41;;;8.57;100.00
24858;BME280;12935;50.782;6.074;2023-02-19T07:51:53;100093.69;;;8.57;100.00
24858;BME280;12935;50.782;6.074;2023-02-19T07:54:18;100101.84;;;8.57;100.00
24858;BME280;12935;50.782;6.074;2023-02-19T07:56:43;100110.53;;;8.62;100.00
24858;BME280;12935;50.782;6.074;2023-02-19T07:59:08;100104.28;;;8.62;100.00
24858;BME280;12935;50.782;6.074;2023-02-19T08:01:34;100111.25;;;8.59;100.00
24858;BME280;12935;50.782;6.074;2023-02-19T08:04:18;100121.72;;;8.57;100.00
24858;BME280;12935;50.782;6.074;2023-02-19T08:06:43;100121.84;;;8.64;100.00
24858;BME280;12935;50.782;6.074;2023-02-19T08:09:08;100110.75;;;8.54;100.00
24858;BME280;12935;50.782;6.074;2023-02-19T08:11:34;100120.28;;;8.63;100.00
24858;BME280;12935;50.782;6.074;2023-02-19T08:14:18;100133.09;;;8.63;100.00
24858;BME280;12935;50.782;6.074;2023-02-19T08:16:52;100133.47;;;8.61;100.00
24858;BME280;12935;50.782;6.074;2023-02-19T08:19:18;100143.63;;;8.64;100.00
24858;BME280;12935;50.782;6.074;2023-02-19T08:21:44;100151.84;;;8.68;100.00
24858;BME280;12935;50.782;6.074;2023-02-19T08:24:09;100153.00;;;8.67;100.00
24858;BME280;12935;50.782;6.074;2023-02-19T08:26:35;100160.50;;;8.73;100.00
24858;BME280;12935;50.782;6.074;2023-02-19T08:29:01;100155.56;;;8.83;100.00
24858;BME280;12935;50.782;6.074;2023-02-19T08:31:26;100165.59;;;8.75;100.00
24858;BME280;12935;50.782;6.074;2023-02-19T08:33:52;100166.25;;;8.68;100.00
24858;BME280;12935;50.782;6.074;2023-02-19T08:36:17;100162.69;;;8.64;100.00
24858;BME280;12935;50.782;6.074;2023-02-19T08:38:42;100169.91;;;8.76;100.00
24858;BME280;12935;50.782;6.074;2023-02-19T08:41:10;100173.41;;;8.76;100.00
24858;BME280;12935;50.782;6.074;2023-02-19T08:43:35;100167.47;;;8.71;100.00
24858;BME280;12935;50.782;6.074;2023-02-19T08:46:02;100176.44;;;8.71;100.00
24858;BME280;12935;50.782;6.074;2023-02-19T08:48:27;100175.28;;;8.72;100.00
24858;BME280;12935;50.782;6.074;2023-02-19T08:50:57;100177.66;;;8.74;100.00
24858;BME280;12935;50.782;6.074;2023-02-19T08:53:24;100174.56;;;8.75;100.00
24858;BME280;12935;50.782;6.074;2023-02-19T08:55:50;100181.94;;;8.75;100.00
24858;BME280;12935;50.782;6.074;2023-02-19T08:58:16;100178.44;;;8.74;100.00
24858;BME280;12935;50.782;6.074;2023-02-19T09:00:41;100188.03;;;8.68;100.00
24858;BME280;12935;50.782;6.074;2023-02-19T09:03:06;100195.75;;;8.63;100.00
24858;BME280;12935;50.782;6.074;2023-02-19T09:05:32;100184.06;;;8.62;100.00
24858;BME280;12935;50.782;6.074;2023-02-19T09:07:57;100187.59;;;8.63;100.00
24858;BME280;12935;50.782;6.074;2023-02-19T09:10:22;100187.09;;;8.57;100.00
24858;BME280;12935;50.782;6.074;2023-02-19T09:12:48;100186.72;;;8.59;100.00
24858;BME280;12935;50.782;6.074;2023-02-19T09:15:13;100183.22;;;8.58;100.00
24858;BME280;12935;50.782;6.074;2023-02-19T09:17:38;100196.34;;;8.53;100.00
24858;BME280;12935;50.782;6.074;2023-02-19T09:20:04;100186.84;;;8.66;100.00
24858;BME280;12935;50.782;6.074;2023-02-19T09:22:29;100183.81;;;8.71;100.00
24858;BME280;12935;50.782;6.074;2023-02-19T09:24:54;100173.28;;;8.47;100.00
24858;BME280;12935;50.782;6.074;2023-02-19T09:27:20;100198.34;;;8.56;100.00
24858;BME280;12935;50.782;6.074;2023-02-19T09:29:45;100201.94;;;8.60;100.00
24858;BME280;12935;50.782;6.074;2023-02-19T09:32:11;100209.13;;;8.71;100.00
24858;BME280;12935;50.782;6.074;2023-02-19T09:34:36;100214.50;;;8.68;100.00
24858;BME280;12935;50.782;6.074;2023-02-19T09:37:03;100210.94;;;8.64;100.00
24858;BME280;12935;50.782;6.074;2023-02-19T09:39:28;100213.69;;;8.64;100.00
24858;BME280;12935;50.782;6.074;2023-02-19T09:41:57;100216.50;;;8.71;100.00
24858;BME280;12935;50.782;6.074;2023-02-19T09:44:30;100215.53;;;8.60;100.00
24858;BME280;12935;50.782;6.074;2023-02-19T09:46:57;100218.47;;;8.51;100.00
24858;BME280;12935;50.782;6.074;2023-02-19T09:52:08;100223.56;;;8.53;100.00
24858;BME280;12935;50.782;6.074;2023-02-19T09:54:38;100215.56;;;8.40;100.00
24858;BME280;12935;50.782;6.074;2023-02-19T09:57:18;100228.41;;;8.40;100.00
24858;BME280;12935;50.782;6.074;2023-02-19T09:59:48;100210.84;;;8.37;100.00
24858;BME280;12935;50.782;6.074;2023-02-19T10:02:17;100222.16;;;8.39;100.00
24858;BME280;12935;50.782;6.074;2023-02-19T10:04:44;100234.44;;;8.49;100.00
24858;BME280;12935;50.782;6.074;2023-02-19T10:07:15;100234.44;;;8.49;100.00
24858;BME280;12935;50.782;6.074;2023-02-19T10:09:44;100237.19;;;8.53;100.00
24858;BME280;12935;50.782;6.074;2023-02-19T10:12:14;100240.22;;;8.48;100.00
24858;BME280;12935;50.782;6.074;2023-02-19T10:14:51;100238.59;;;8.43;100.00
24858;BME280;12935;50.782;6.074;2023-02-19T10:17:25;100246.88;;;8.50;100.00
24858;BME280;12935;50.782;6.074;2023-02-19T10:19:52;100260.19;;;8.55;100.00
24858;BME280;12935;50.782;6.074;2023-02-19T10:22:18;100261.66;;;8.49;100.00
24858;BME280;12935;50.782;6.074;2023-02-19T10:24:48;100260.28;;;8.59;100.00
24858;BME280;12935;50.782;6.074;2023-02-19T10:27:16;100271.28;;;8.66;100.00
24858;BME280;12935;50.782;6.074;2023-02-19T10:29:42;100281.00;;;8.86;100.00
24858;BME280;12935;50.782;6.074;2023-02-19T10:32:20;100286.44;;;8.86;100.00
24858;BME280;12935;50.782;6.074;2023-02-19T10:35:07;100288.97;;;8.95;100.00
24858;BME280;12935;50.782;6.074;2023-02-19T10:37:33;100294.94;;;8.81;100.00
24858;BME280;12935;50.782;6.074;2023-02-19T10:39:59;100291.03;;;8.82;100.00
24858;BME280;12935;50.782;6.074;2023-02-19T10:42:25;100289.38;;;8.97;100.00
24858;BME280;12935;50.782;6.074;2023-02-19T10:45:00;100297.78;;;8.88;100.00
24858;BME280;12935;50.782;6.074;2023-02-19T10:47:29;100291.38;;;8.77;100.00
24858;BME280;12935;50.782;6.074;2023-02-19T10:49:56;100297.84;;;8.92;100.00
24858;BME280;12935;50.782;6.074;2023-02-19T10:52:29;100292.28;;;9.07;100.00
24858;BME280;12935;50.782;6.074;2023-02-19T10:55:13;100301.91;;;9.01;100.00
24858;BME280;12935;50.782;6.074;2023-02-19T10:57:38;100297.84;;;8.92;100.00
24858;BME280;12935;50.782;6.074;2023-02-19T11:00:26;100306.88;;;8.96;100.00
24858;BME280;12935;50.782;6.074;2023-02-19T11:03:15;100318.97;;;8.98;100.00
24858;BME280;12935;50.782;6.074;2023-02-19T11:06:12;100324.72;;;9.12;100.00
24858;BME280;12935;50.782;6.074;2023-02-19T11:08:47;100332.91;;;9.16;100.00
24858;BME280;12935;50.782;6.074;2023-02-19T11:13:54;100336.69;;;9.31;100.00
24858;BME280;12935;50.782;6.074;2023-02-19T11:16:20;100334.50;;;9.17;100.00
24858;BME280;12935;50.782;6.074;2023-02-19T11:18:53;100330.16;;;9.12;100.00
24858;BME280;12935;50.782;6.074;2023-02-19T11:21:24;100345.66;;;9.08;100.00
24858;BME280;12935;50.782;6.074;2023-02-19T11:23:53;100339.28;;;9.01;100.00
24858;BME280;12935;50.782;6.074;2023-02-19T11:26:24;100345.41;;;8.94;100.00
24858;BME280;12935;50.782;6.074;2023-02-19T11:28:59;100341.53;;;8.95;100.00
24858;BME280;12935;50.782;6.074;2023-02-19T11:31:32;100346.13;;;8.91;100.00
24858;BME280;12935;50.782;6.074;2023-02-19T11:36:39;100346.31;;;9.02;100.00
24858;BME280;12935;50.782;6.074;2023-02-19T11:53:19;100325.53;;;9.17;100.00
24858;BME280;12935;50.782;6.074;2023-02-19T12:14:46;100317.34;;;9.66;100.00
24858;BME280;12935;50.782;6.074;2023-02-19T12:17:53;100321.03;;;9.50;100.00
24858;BME280;12935;50.782;6.074;2023-02-19T12:20:52;100332.44;;;9.56;100.00
24858;BME280;12935;50.782;6.074;2023-02-19T12:23:44;100332.06;;;9.35;100.00
24858;BME280;12935;50.782;6.074;2023-02-19T12:26:23;100324.94;;;9.27;100.00
24858;BME280;12935;50.782;6.074;2023-02-19T12:29:24;100327.41;;;9.35;100.00
24858;BME280;12935;50.782;6.074;2023-02-19T12:32:14;100320.31;;;9.31;100.00
24858;BME280;12935;50.782;6.074;2023-02-19T12:35:04;100323.38;;;9.52;100.00
24858;BME280;12935;50.782;6.074;2023-02-19T12:37:43;100332.31;;;9.49;100.00
24858;BME280;12935;50.782;6.074;2023-02-19T12:40:36;100320.16;;;9.43;100.00
24858;BME280;12935;50.782;6.074;2023-02-19T12:43:16;100314.78;;;9.50;100.00
24858;BME280;12935;50.782;6.074;2023-02-19T12:45:58;100316.56;;;9.39;100.00
24858;BME280;12935;50.782;6.074;2023-02-19T12:48:32;100314.84;;;9.31;100.00
24858;BME280;12935;50.782;6.074;2023-02-19T12:53:44;100320.56;;;9.22;100.00
24858;BME280;12935;50.782;6.074;2023-02-19T12:56:19;100319.72;;;9.18;100.00
24858;BME280;12935;50.782;6.074;2023-02-19T12:58:48;100323.78;;;9.28;100.00
24858;BME280;12935;50.782;6.074;2023-02-19T13:01:19;100322.03;;;9.39;100.00
24858;BME280;12935;50.782;6.074;2023-02-19T13:06:50;100336.19;;;9.48;100.00
24858;BME280;12935;50.782;6.074;2023-02-19T13:12:13;100326.41;;;9.47;100.00
24858;BME280;12935;50.782;6.074;2023-02-19T13:14:44;100340.13;;;9.50;100.00
24858;BME280;12935;50.782;6.074;2023-02-19T13:17:20;100338.59;;;9.53;100.00
24858;BME280;12935;50.782;6.074;2023-02-19T13:19:50;100337.97;;;9.63;100.00
24858;BME280;12935;50.782;6.074;2023-02-19T13:22:32;100329.56;;;9.49;100.00
24858;BME280;12935;50.782;6.074;2023-02-19T13:25:19;100336.91;;;9.45;100.00
24858;BME280;12935;50.782;6.074;2023-02-19T13:28:06;100332.16;;;9.65;100.00
24858;BME280;12935;50.782;6.074;2023-02-19T13:30:52;100329.28;;;9.54;100.00
24858;BME280;12935;50.782;6.074;2023-02-19T13:33:29;100352.50;;;9.44;100.00
24858;BME280;12935;50.782;6.074;2023-02-19T13:36:15;100350.38;;;9.34;100.00
24858;BME280;12935;50.782;6.074;2023-02-19T13:38:45;100353.53;;;9.36;100.00
24858;BME280;12935;50.782;6.074;2023-02-19T13:41:39;100347.66;;;9.34;100.00
24858;BME280;12935;50.782;6.074;2023-02-19T13:44:12;100348.16;;;9.66;100.00
24858;BME280;12935;50.782;6.074;2023-02-19T13:46:43;100347.00;;;9.94;100.00
24858;BME280;12935;50.782;6.074;2023-02-19T13:49:36;100352.28;;;10.06;100.00
24858;BME280;12935;50.782;6.074;2023-02-19T13:52:33;100355.19;;;9.94;100.00
24858;BME280;12935;50.782;6.074;2023-02-19T14:00:57;100358.19;;;9.36;100.00
24858;BME280;12935;50.782;6.074;2023-02-19T14:03:39;100356.00;;;9.45;100.00
24858;BME280;12935;50.782;6.074;2023-02-19T14:06:06;100358.34;;;9.43;100.00
24858;BME280;12935;50.782;6.074;2023-02-19T14:08:55;100366.44;;;9.39;100.00
24858;BME280;12935;50.782;6.074;2023-02-19T14:14:35;100372.06;;;9.50;100.00
24858;BME280;12935;50.782;6.074;2023-02-19T14:27:54;100405.72;;;9.35;100.00
24858;BME280;12935;50.782;6.074;2023-02-19T14:30:22;100403.28;;;9.30;100.00
24858;BME280;12935;50.782;6.074;2023-02-19T14:32:48;100405.03;;;9.19;100.00
24858;BME280;12935;50.782;6.074;2023-02-19T14:35:18;100410.06;;;9.17;100.00